sensor_id;sensor_type;location;lat;lon;timestamp;temperature;humidity
15239;DHT22;7722;53.274;9.500;2023-11-18T00:00:56;-1.30;99.90
15239;DHT22;7722;53.274;9.500;2023-11-18T00:03:24;-1.30;99.90
15239;DHT22;7722;53.274;9.500;2023-11-18T00:05:51;-1.40;99.90
15239;DHT22;7722;53.274;9.500;2023-11-18T00:08:18;-1.40;99.90
15239;DHT22;7722;53.274;9.500;2023-11-18T00:10:46;-1.40;99.90
15239;DHT22;7722;53.274;9.500;2023-11-18T00:13:14;-1.40;99.90
15239;DHT22;7722;53.274;9.500;2023-11-18T00:15:41;-1.40;99.90
15239;DHT22;7722;53.274;9.500;2023-11-18T00:18:08;-1.30;99.90
15239;DHT22;7722;53.274;9.500;2023-11-18T00:20:36;-1.30;99.90
15239;DHT22;7722;53.274;9.500;2023-11-18T00:23:03;-1.30;99.90
15239;DHT22;7722;53.274;9.500;2023-11-18T00:25:31;-1.40;99.90
15239;DHT22;7722;53.274;9.500;2023-11-18T00:28:01;-1.40;99.90
15239;DHT22;7722;53.274;9.500;2023-11-18T00:30:28;-1.40;99.90
15239;DHT22;7722;53.274;9.500;2023-11-18T00:32:55;-1.40;99.90
15239;DHT22;7722;53.274;9.500;2023-11-18T00:35:22;-1.50;99.90
15239;DHT22;7722;53.274;9.500;2023-11-18T00:37:48;-1.40;99.90
15239;DHT22;7722;53.274;9.500;2023-11-18T00:40:15;-1.40;99.90
15239;DHT22;7722;53.274;9.500;2023-11-18T00:42:43;-1.40;99.90
15239;DHT22;7722;53.274;9.500;2023-11-18T00:45:12;-1.40;99.90
15239;DHT22;7722;53.274;9.500;2023-11-18T00:47:39;-1.50;99.90
15239;DHT22;7722;53.274;9.500;2023-11-18T00:50:07;-1.50;99.90
15239;DHT22;7722;53.274;9.500;2023-11-18T00:52:35;-1.60;99.90
15239;DHT22;7722;53.274;9.500;2023-11-18T00:55:04;-1.60;99.90
15239;DHT22;7722;53.274;9.500;2023-11-18T00:57:32;-1.50;99.90
15239;DHT22;7722;53.274;9.500;2023-11-18T00:59:59;-1.50;99.90
15239;DHT22;7722;53.274;9.500;2023-11-18T01:02:28;-1.60;99.90
15239;DHT22;7722;53.274;9.500;2023-11-18T01:04:55;-1.60;99.90
15239;DHT22;7722;53.274;9.500;2023-11-18T01:07:22;-1.60;99.90
15239;DHT22;7722;53.274;9.500;2023-11-18T01:09:49;-1.60;99.90
15239;DHT22;7722;53.274;9.500;2023-11-18T01:12:16;-1.60;99.90
15239;DHT22;7722;53.274;9.500;2023-11-18T01:14:44;-1.60;99.90
15239;DHT22;7722;53.274;9.500;2023-11-18T01:17:11;-1.60;99.90
15239;DHT22;7722;53.274;9.500;2023-11-18T01:19:40;-1.60;99.90
15239;DHT22;7722;53.274;9.500;2023-11-18T01:22:07;-1.50;99.90
15239;DHT22;7722;53.274;9.500;2023-11-18T01:24:35;-1.50;99.90
15239;DHT22;7722;53.274;9.500;2023-11-18T01:27:02;-1.50;99.90
15239;DHT22;7722;53.274;9.500;2023-11-18T01:29:29;-1.50;99.90
15239;DHT22;7722;53.274;9.500;2023-11-18T01:31:56;-1.50;99.90
15239;DHT22;7722;53.274;9.500;2023-11-18T01:34:24;-1.40;99.90
15239;DHT22;7722;53.274;9.500;2023-11-18T01:36:52;-1.40;99.90
15239;DHT22;7722;53.274;9.500;2023-11-18T01:39:19;-1.50;99.90
15239;DHT22;7722;53.274;9.500;2023-11-18T01:41:46;-1.60;99.90
15239;DHT22;7722;53.274;9.500;2023-11-18T01:44:14;-1.50;99.90
15239;DHT22;7722;53.274;9.500;2023-11-18T01:46:43;-1.60;99.90
15239;DHT22;7722;53.274;9.500;2023-11-18T01:49:11;-1.60;99.90
15239;DHT22;7722;53.274;9.500;2023-11-18T01:51:40;-1.60;99.90
15239;DHT22;7722;53.274;9.500;2023-11-18T01:54:09;-1.60;99.90
15239;DHT22;7722;53.274;9.500;2023-11-18T01:56:41;-1.70;99.90
15239;DHT22;7722;53.274;9.500;2023-11-18T01:59:09;-1.70;99.90
15239;DHT22;7722;53.274;9.500;2023-11-18T02:01:44;-1.70;99.90
15239;DHT22;7722;53.274;9.500;2023-11-18T02:04:13;-1.70;99.90
15239;DHT22;7722;53.274;9.500;2023-11-18T02:06:40;-1.80;99.90
15239;DHT22;7722;53.274;9.500;2023-11-18T02:09:09;-1.80;99.90
15239;DHT22;7722;53.274;9.500;2023-11-18T02:11:39;-1.80;99.90
15239;DHT22;7722;53.274;9.500;2023-11-18T02:14:08;-1.80;99.90
15239;DHT22;7722;53.274;9.500;2023-11-18T02:16:43;-1.90;99.90
15239;DHT22;7722;53.274;9.500;2023-11-18T02:19:19;-1.90;99.90
15239;DHT22;7722;53.274;9.500;2023-11-18T02:21:47;-1.90;99.90
15239;DHT22;7722;53.274;9.500;2023-11-18T02:24:26;-1.90;99.90
15239;DHT22;7722;53.274;9.500;2023-11-18T02:26:58;-1.90;99.90
15239;DHT22;7722;53.274;9.500;2023-11-18T02:29:28;-1.90;99.90
15239;DHT22;7722;53.274;9.500;2023-11-18T02:31:59;-1.90;99.90
15239;DHT22;7722;53.274;9.500;2023-11-18T02:34:32;-1.90;99.90
15239;DHT22;7722;53.274;9.500;2023-11-18T02:37:03;-1.80;99.90
15239;DHT22;7722;53.274;9.500;2023-11-18T02:39:34;-1.80;99.90
15239;DHT22;7722;53.274;9.500;2023-11-18T02:42:07;-1.90;99.90
15239;DHT22;7722;53.274;9.500;2023-11-18T02:44:35;-1.80;99.90
15239;DHT22;7722;53.274;9.500;2023-11-18T02:47:03;-1.90;99.90
15239;DHT22;7722;53.274;9.500;2023-11-18T02:49:31;-1.90;99.90
15239;DHT22;7722;53.274;9.500;2023-11-18T02:51:59;-1.90;99.90
15239;DHT22;7722;53.274;9.500;2023-11-18T02:54:26;-1.80;99.90
15239;DHT22;7722;53.274;9.500;2023-11-18T02:56:53;-1.70;99.90
15239;DHT22;7722;53.274;9.500;2023-11-18T02:59:21;-1.60;99.90
15239;DHT22;7722;53.274;9.500;2023-11-18T03:01:48;-1.60;99.90
15239;DHT22;7722;53.274;9.500;2023-11-18T03:04:15;-1.50;99.90
15239;DHT22;7722;53.274;9.500;2023-11-18T03:06:44;-1.40;99.90
15239;DHT22;7722;53.274;9.500;2023-11-18T03:09:11;-1.50;99.90
15239;DHT22;7722;53.274;9.500;2023-11-18T03:11:41;-1.40;99.90
15239;DHT22;7722;53.274;9.500;2023-11-18T03:14:10;-1.40;99.90
15239;DHT22;7722;53.274;9.500;2023-11-18T03:16:39;-1.40;99.90
15239;DHT22;7722;53.274;9.500;2023-11-18T03:19:06;-1.30;99.90
15239;DHT22;7722;53.274;9.500;2023-11-18T03:21:34;-1.40;99.90
15239;DHT22;7722;53.274;9.500;2023-11-18T03:24:02;-1.50;99.90
15239;DHT22;7722;53.274;9.500;2023-11-18T03:26:29;-1.50;99.90
15239;DHT22;7722;53.274;9.500;2023-11-18T03:28:58;-1.50;99.90
15239;DHT22;7722;53.274;9.500;2023-11-18T03:31:25;-1.50;99.90
15239;DHT22;7722;53.274;9.500;2023-11-18T03:33:53;-1.60;99.90
15239;DHT22;7722;53.274;9.500;2023-11-18T03:36:20;-1.60;99.90
15239;DHT22;7722;53.274;9.500;2023-11-18T03:38:47;-1.60;99.90
15239;DHT22;7722;53.274;9.500;2023-11-18T03:41:15;-1.60;99.90
15239;DHT22;7722;53.274;9.500;2023-11-18T03:43:42;-1.70;99.90
15239;DHT22;7722;53.274;9.500;2023-11-18T03:46:09;-1.60;99.90
15239;DHT22;7722;53.274;9.500;2023-11-18T03:48:36;-1.70;99.90
15239;DHT22;7722;53.274;9.500;2023-11-18T03:51:05;-1.60;99.90
15239;DHT22;7722;53.274;9.500;2023-11-18T03:53:32;-1.60;99.90
15239;DHT22;7722;53.274;9.500;2023-11-18T03:56:00;-1.70;99.90
15239;DHT22;7722;53.274;9.500;2023-11-18T03:58:27;-1.60;99.90
15239;DHT22;7722;53.274;9.500;2023-11-18T04:00:54;-1.60;99.90
15239;DHT22;7722;53.274;9.500;2023-11-18T04:03:23;-1.60;99.90
15239;DHT22;7722;53.274;9.500;2023-11-18T04:05:50;-1.60;99.90
15239;DHT22;7722;53.274;9.500;2023-11-18T04:08:18;-1.60;99.90
15239;DHT22;7722;53.274;9.500;2023-11-18T04:10:45;-1.70;99.90
15239;DHT22;7722;53.274;9.500;2023-11-18T04:13:12;-1.70;99.90
15239;DHT22;7722;53.274;9.500;2023-11-18T04:15:39;-1.70;99.90
15239;DHT22;7722;53.274;9.500;2023-11-18T04:18:06;-1.70;99.90
15239;DHT22;7722;53.274;9.500;2023-11-18T04:20:33;-1.70;99.90
15239;DHT22;7722;53.274;9.500;2023-11-18T04:23:00;-1.80;99.90
15239;DHT22;7722;53.274;9.500;2023-11-18T04:25:28;-1.80;99.90
15239;DHT22;7722;53.274;9.500;2023-11-18T04:27:55;-1.70;99.90
15239;DHT22;7722;53.274;9.500;2023-11-18T04:30:22;-1.70;99.90
15239;DHT22;7722;53.274;9.500;2023-11-18T04:32:52;-1.70;99.90
15239;DHT22;7722;53.274;9.500;2023-11-18T04:35:19;-1.70;99.90
15239;DHT22;7722;53.274;9.500;2023-11-18T04:37:48;-1.70;99.90
15239;DHT22;7722;53.274;9.500;2023-11-18T04:40:15;-1.70;99.90
15239;DHT22;7722;53.274;9.500;2023-11-18T04:42:43;-1.70;99.90
15239;DHT22;7722;53.274;9.500;2023-11-18T04:45:10;-1.80;99.90
15239;DHT22;7722;53.274;9.500;2023-11-18T04:47:39;-1.80;99.90
15239;DHT22;7722;53.274;9.500;2023-11-18T04:50:09;-1.80;99.90
15239;DHT22;7722;53.274;9.500;2023-11-18T04:52:36;-1.80;99.90
15239;DHT22;7722;53.274;9.500;2023-11-18T04:55:04;-1.80;99.90
15239;DHT22;7722;53.274;9.500;2023-11-18T04:57:32;-1.90;99.90
15239;DHT22;7722;53.274;9.500;2023-11-18T05:00:01;-1.90;99.90
15239;DHT22;7722;53.274;9.500;2023-11-18T05:02:35;-1.90;99.90
15239;DHT22;7722;53.274;9.500;2023-11-18T05:05:03;-1.80;99.90
15239;DHT22;7722;53.274;9.500;2023-11-18T05:07:32;-1.80;99.90
15239;DHT22;7722;53.274;9.500;2023-11-18T05:09:59;-1.90;99.90
15239;DHT22;7722;53.274;9.500;2023-11-18T05:12:26;-1.90;99.90
15239;DHT22;7722;53.274;9.500;2023-11-18T05:14:55;-1.80;99.90
15239;DHT22;7722;53.274;9.500;2023-11-18T05:17:24;-1.90;99.90
15239;DHT22;7722;53.274;9.500;2023-11-18T05:19:51;-1.90;99.90
15239;DHT22;7722;53.274;9.500;2023-11-18T05:22:19;-1.90;99.90
15239;DHT22;7722;53.274;9.500;2023-11-18T05:24:46;-1.90;99.90
15239;DHT22;7722;53.274;9.500;2023-11-18T05:27:13;-1.80;99.90
15239;DHT22;7722;53.274;9.500;2023-11-18T05:29:40;-1.80;99.90
15239;DHT22;7722;53.274;9.500;2023-11-18T05:32:08;-1.80;99.90
15239;DHT22;7722;53.274;9.500;2023-11-18T05:34:36;-1.80;99.90
15239;DHT22;7722;53.274;9.500;2023-11-18T05:37:03;-1.90;99.90
15239;DHT22;7722;53.274;9.500;2023-11-18T05:39:30;-1.90;99.90
15239;DHT22;7722;53.274;9.500;2023-11-18T05:41:59;-1.80;99.90
15239;DHT22;7722;53.274;9.500;2023-11-18T05:44:26;-1.80;99.90
15239;DHT22;7722;53.274;9.500;2023-11-18T05:46:56;-1.70;99.90
15239;DHT22;7722;53.274;9.500;2023-11-18T05:49:23;-1.70;99.90
15239;DHT22;7722;53.274;9.500;2023-11-18T05:51:52;-1.70;99.90
15239;DHT22;7722;53.274;9.500;2023-11-18T05:54:19;-1.70;99.90
15239;DHT22;7722;53.274;9.500;2023-11-18T05:56:46;-1.70;99.90
15239;DHT22;7722;53.274;9.500;2023-11-18T05:59:13;-1.70;99.90
15239;DHT22;7722;53.274;9.500;2023-11-18T06:01:40;-1.60;99.90
15239;DHT22;7722;53.274;9.500;2023-11-18T06:04:07;-1.60;99.90
15239;DHT22;7722;53.274;9.500;2023-11-18T06:06:35;-1.60;99.90
15239;DHT22;7722;53.274;9.500;2023-11-18T06:09:04;-1.60;99.90
15239;DHT22;7722;53.274;9.500;2023-11-18T06:11:35;-1.60;99.90
15239;DHT22;7722;53.274;9.500;2023-11-18T06:14:06;-1.60;99.90
15239;DHT22;7722;53.274;9.500;2023-11-18T06:16:35;-1.60;99.90
15239;DHT22;7722;53.274;9.500;2023-11-18T06:19:03;-1.50;99.90
15239;DHT22;7722;53.274;9.500;2023-11-18T06:21:31;-1.50;99.90
15239;DHT22;7722;53.274;9.500;2023-11-18T06:23:58;-1.40;99.90
15239;DHT22;7722;53.274;9.500;2023-11-18T06:26:27;-1.40;99.90
15239;DHT22;7722;53.274;9.500;2023-11-18T06:28:55;-1.40;99.90
15239;DHT22;7722;53.274;9.500;2023-11-18T06:31:22;-1.40;99.90
15239;DHT22;7722;53.274;9.500;2023-11-18T06:33:50;-1.40;99.90
15239;DHT22;7722;53.274;9.500;2023-11-18T06:36:18;-1.40;99.90
15239;DHT22;7722;53.274;9.500;2023-11-18T06:38:46;-1.30;99.90
15239;DHT22;7722;53.274;9.500;2023-11-18T06:41:15;-1.30;99.90
15239;DHT22;7722;53.274;9.500;2023-11-18T06:43:45;-1.20;99.90
15239;DHT22;7722;53.274;9.500;2023-11-18T06:46:23;-1.10;99.90
15239;DHT22;7722;53.274;9.500;2023-11-18T06:48:51;-1.00;99.90
15239;DHT22;7722;53.274;9.500;2023-11-18T06:51:20;-0.90;99.90
15239;DHT22;7722;53.274;9.500;2023-11-18T06:53:49;-0.90;99.90
15239;DHT22;7722;53.274;9.500;2023-11-18T06:56:16;-0.90;99.90
15239;DHT22;7722;53.274;9.500;2023-11-18T06:58:45;-0.80;99.90
15239;DHT22;7722;53.274;9.500;2023-11-18T07:01:13;-0.70;99.90
15239;DHT22;7722;53.274;9.500;2023-11-18T07:03:40;-0.70;99.90
15239;DHT22;7722;53.274;9.500;2023-11-18T07:06:08;-0.60;99.90
15239;DHT22;7722;53.274;9.500;2023-11-18T07:08:35;-0.60;99.90
15239;DHT22;7722;53.274;9.500;2023-11-18T07:11:03;-0.60;99.90
15239;DHT22;7722;53.274;9.500;2023-11-18T07:13:31;-0.50;99.90
15239;DHT22;7722;53.274;9.500;2023-11-18T07:16:01;-0.50;99.90
15239;DHT22;7722;53.274;9.500;2023-11-18T07:18:29;-0.40;99.90
15239;DHT22;7722;53.274;9.500;2023-11-18T07:20:59;-0.40;99.90
15239;DHT22;7722;53.274;9.500;2023-11-18T07:23:26;-0.30;99.90
15239;DHT22;7722;53.274;9.500;2023-11-18T07:25:53;-0.30;99.90
15239;DHT22;7722;53.274;9.500;2023-11-18T07:28:20;-0.20;99.90
15239;DHT22;7722;53.274;9.500;2023-11-18T07:30:47;-0.20;99.90
15239;DHT22;7722;53.274;9.500;2023-11-18T07:33:16;-0.10;99.90
15239;DHT22;7722;53.274;9.500;2023-11-18T07:35:45;-0.10;99.90
15239;DHT22;7722;53.274;9.500;2023-11-18T07:38:13;0.00;99.90
15239;DHT22;7722;53.274;9.500;2023-11-18T07:40:41;0.00;99.90
15239;DHT22;7722;53.274;9.500;2023-11-18T07:43:11;0.10;99.90
15239;DHT22;7722;53.274;9.500;2023-11-18T07:45:39;0.10;99.90
15239;DHT22;7722;53.274;9.500;2023-11-18T07:48:06;0.10;99.90
15239;DHT22;7722;53.274;9.500;2023-11-18T07:50:36;0.10;99.90
15239;DHT22;7722;53.274;9.500;2023-11-18T07:53:03;0.20;99.90
15239;DHT22;7722;53.274;9.500;2023-11-18T07:55:32;0.20;99.90
15239;DHT22;7722;53.274;9.500;2023-11-18T07:58:00;0.30;99.90
15239;DHT22;7722;53.274;9.500;2023-11-18T08:00:27;0.30;99.90
15239;DHT22;7722;53.274;9.500;2023-11-18T08:02:56;0.40;99.90
15239;DHT22;7722;53.274;9.500;2023-11-18T08:05:25;0.40;99.90
15239;DHT22;7722;53.274;9.500;2023-11-18T08:07:55;0.50;99.90
15239;DHT22;7722;53.274;9.500;2023-11-18T08:10:22;0.60;99.90
15239;DHT22;7722;53.274;9.500;2023-11-18T08:12:50;0.60;99.90
15239;DHT22;7722;53.274;9.500;2023-11-18T08:15:20;0.60;99.90
15239;DHT22;7722;53.274;9.500;2023-11-18T08:17:47;0.60;99.90
15239;DHT22;7722;53.274;9.500;2023-11-18T08:20:14;0.70;99.90
15239;DHT22;7722;53.274;9.500;2023-11-18T08:22:41;0.70;99.90
15239;DHT22;7722;53.274;9.500;2023-11-18T08:25:11;0.70;99.90
15239;DHT22;7722;53.274;9.500;2023-11-18T08:27:39;0.80;99.90
15239;DHT22;7722;53.274;9.500;2023-11-18T08:30:07;0.80;99.90
15239;DHT22;7722;53.274;9.500;2023-11-18T08:32:37;0.90;99.90
15239;DHT22;7722;53.274;9.500;2023-11-18T08:35:05;1.00;99.90
15239;DHT22;7722;53.274;9.500;2023-11-18T08:37:33;1.00;99.90
15239;DHT22;7722;53.274;9.500;2023-11-18T08:40:05;1.10;99.90
15239;DHT22;7722;53.274;9.500;2023-11-18T08:42:42;1.10;99.90
15239;DHT22;7722;53.274;9.500;2023-11-18T08:45:14;1.10;99.90
15239;DHT22;7722;53.274;9.500;2023-11-18T08:47:43;1.20;99.90
15239;DHT22;7722;53.274;9.500;2023-11-18T08:50:13;1.30;99.90
15239;DHT22;7722;53.274;9.500;2023-11-18T08:52:42;1.30;99.90
15239;DHT22;7722;53.274;9.500;2023-11-18T08:55:12;1.40;99.90
15239;DHT22;7722;53.274;9.500;2023-11-18T08:57:45;1.40;99.90
15239;DHT22;7722;53.274;9.500;2023-11-18T09:00:18;1.40;99.90
15239;DHT22;7722;53.274;9.500;2023-11-18T09:02:59;1.40;99.90
15239;DHT22;7722;53.274;9.500;2023-11-18T09:05:26;1.40;99.90
15239;DHT22;7722;53.274;9.500;2023-11-18T09:07:57;1.50;99.90
15239;DHT22;7722;53.274;9.500;2023-11-18T09:10:26;1.40;99.90
15239;DHT22;7722;53.274;9.500;2023-11-18T09:12:55;1.50;99.90
15239;DHT22;7722;53.274;9.500;2023-11-18T09:15:22;1.50;99.90
15239;DHT22;7722;53.274;9.500;2023-11-18T09:17:49;1.70;99.90
15239;DHT22;7722;53.274;9.500;2023-11-18T09:20:16;1.80;99.90
15239;DHT22;7722;53.274;9.500;2023-11-18T09:22:48;1.80;99.90
15239;DHT22;7722;53.274;9.500;2023-11-18T09:25:15;2.00;99.90
15239;DHT22;7722;53.274;9.500;2023-11-18T09:27:43;2.10;99.90
15239;DHT22;7722;53.274;9.500;2023-11-18T09:30:12;2.20;99.90
15239;DHT22;7722;53.274;9.500;2023-11-18T09:32:40;2.30;99.90
15239;DHT22;7722;53.274;9.500;2023-11-18T09:35:08;2.40;99.90
15239;DHT22;7722;53.274;9.500;2023-11-18T09:37:38;2.50;99.90
15239;DHT22;7722;53.274;9.500;2023-11-18T09:40:07;2.60;99.90
15239;DHT22;7722;53.274;9.500;2023-11-18T09:42:38;2.70;99.90
15239;DHT22;7722;53.274;9.500;2023-11-18T09:45:06;2.70;99.90
15239;DHT22;7722;53.274;9.500;2023-11-18T09:47:42;2.80;99.90
15239;DHT22;7722;53.274;9.500;2023-11-18T09:50:17;2.90;99.90
15239;DHT22;7722;53.274;9.500;2023-11-18T09:52:48;3.00;99.90
15239;DHT22;7722;53.274;9.500;2023-11-18T09:55:25;3.10;99.90
15239;DHT22;7722;53.274;9.500;2023-11-18T09:57:58;3.10;99.90
15239;DHT22;7722;53.274;9.500;2023-11-18T10:00:30;3.10;99.90
15239;DHT22;7722;53.274;9.500;2023-11-18T10:03:00;3.20;99.90
15239;DHT22;7722;53.274;9.500;2023-11-18T10:05:27;3.40;99.90
15239;DHT22;7722;53.274;9.500;2023-11-18T10:07:56;3.50;99.90
15239;DHT22;7722;53.274;9.500;2023-11-18T10:10:24;3.60;99.90
15239;DHT22;7722;53.274;9.500;2023-11-18T10:13:01;3.60;99.90
15239;DHT22;7722;53.274;9.500;2023-11-18T10:15:30;3.60;99.90
15239;DHT22;7722;53.274;9.500;2023-11-18T10:18:00;3.60;99.90
15239;DHT22;7722;53.274;9.500;2023-11-18T10:20:45;3.70;99.90
15239;DHT22;7722;53.274;9.500;2023-11-18T10:23:14;3.70;99.90
15239;DHT22;7722;53.274;9.500;2023-11-18T10:25:45;3.70;99.90
15239;DHT22;7722;53.274;9.500;2023-11-18T10:28:24;3.80;99.90
15239;DHT22;7722;53.274;9.500;2023-11-18T10:30:53;3.70;99.90
15239;DHT22;7722;53.274;9.500;2023-11-18T10:33:24;3.80;99.90
15239;DHT22;7722;53.274;9.500;2023-11-18T10:35:57;3.80;99.90
15239;DHT22;7722;53.274;9.500;2023-11-18T10:38:24;3.80;99.90
15239;DHT22;7722;53.274;9.500;2023-11-18T10:40:56;3.90;99.90
15239;DHT22;7722;53.274;9.500;2023-11-18T10:43:23;3.90;99.90
15239;DHT22;7722;53.274;9.500;2023-11-18T10:45:52;3.80;99.90
15239;DHT22;7722;53.274;9.500;2023-11-18T10:48:19;3.90;99.90
15239;DHT22;7722;53.274;9.500;2023-11-18T10:50:49;4.00;99.90
15239;DHT22;7722;53.274;9.500;2023-11-18T10:53:18;4.00;99.90
15239;DHT22;7722;53.274;9.500;2023-11-18T10:55:47;4.10;99.90
15239;DHT22;7722;53.274;9.500;2023-11-18T10:58:16;4.10;99.90
15239;DHT22;7722;53.274;9.500;2023-11-18T11:00:50;4.20;99.90
15239;DHT22;7722;53.274;9.500;2023-11-18T11:03:19;4.00;99.90
15239;DHT22;7722;53.274;9.500;2023-11-18T11:05:51;4.00;99.90
15239;DHT22;7722;53.274;9.500;2023-11-18T11:08:20;4.00;99.90
15239;DHT22;7722;53.274;9.500;2023-11-18T11:10:49;4.10;99.90
15239;DHT22;7722;53.274;9.500;2023-11-18T11:13:18;4.20;99.90
15239;DHT22;7722;53.274;9.500;2023-11-18T11:15:47;4.30;99.90
15239;DHT22;7722;53.274;9.500;2023-11-18T11:18:20;4.30;99.90
15239;DHT22;7722;53.274;9.500;2023-11-18T11:20:59;4.40;99.90
15239;DHT22;7722;53.274;9.500;2023-11-18T11:23:41;4.50;99.90
15239;DHT22;7722;53.274;9.500;2023-11-18T11:26:23;4.50;99.90
15239;DHT22;7722;53.274;9.500;2023-11-18T11:29:01;4.50;99.90
15239;DHT22;7722;53.274;9.500;2023-11-18T11:31:34;4.60;99.90
15239;DHT22;7722;53.274;9.500;2023-11-18T11:34:03;4.60;99.90
15239;DHT22;7722;53.274;9.500;2023-11-18T11:36:38;4.70;99.90
15239;DHT22;7722;53.274;9.500;2023-11-18T11:39:08;4.60;99.90
15239;DHT22;7722;53.274;9.500;2023-11-18T11:41:44;4.60;99.90
15239;DHT22;7722;53.274;9.500;2023-11-18T11:44:13;4.50;99.90
15239;DHT22;7722;53.274;9.500;2023-11-18T11:46:40;4.60;99.90
15239;DHT22;7722;53.274;9.500;2023-11-18T11:49:10;4.60;99.90
15239;DHT22;7722;53.274;9.500;2023-11-18T11:51:49;4.60;99.90
15239;DHT22;7722;53.274;9.500;2023-11-18T11:54:23;4.70;99.90
15239;DHT22;7722;53.274;9.500;2023-11-18T11:56:56;4.70;99.90
15239;DHT22;7722;53.274;9.500;2023-11-18T11:59:54;4.70;99.90
15239;DHT22;7722;53.274;9.500;2023-11-18T12:02:23;4.70;99.90
15239;DHT22;7722;53.274;9.500;2023-11-18T12:04:55;4.60;99.90
15239;DHT22;7722;53.274;9.500;2023-11-18T12:07:30;4.50;99.90
15239;DHT22;7722;53.274;9.500;2023-11-18T12:10:08;4.50;99.90
15239;DHT22;7722;53.274;9.500;2023-11-18T12:12:40;4.40;99.90
15239;DHT22;7722;53.274;9.500;2023-11-18T12:15:08;4.40;99.90
15239;DHT22;7722;53.274;9.500;2023-11-18T12:18:09;4.40;99.90
15239;DHT22;7722;53.274;9.500;2023-11-18T12:20:39;4.40;99.90
15239;DHT22;7722;53.274;9.500;2023-11-18T12:23:09;4.40;99.90
15239;DHT22;7722;53.274;9.500;2023-11-18T12:25:41;4.50;99.90
15239;DHT22;7722;53.274;9.500;2023-11-18T12:28:09;4.40;99.90
15239;DHT22;7722;53.274;9.500;2023-11-18T12:30:41;4.50;99.90
15239;DHT22;7722;53.274;9.500;2023-11-18T12:33:19;4.40;99.90
15239;DHT22;7722;53.274;9.500;2023-11-18T12:42:04;4.50;99.90
15239;DHT22;7722;53.274;9.500;2023-11-18T12:44:38;4.50;99.90
15239;DHT22;7722;53.274;9.500;2023-11-18T12:47:08;4.50;99.90
15239;DHT22;7722;53.274;9.500;2023-11-18T12:49:44;4.60;99.90
15239;DHT22;7722;53.274;9.500;2023-11-18T12:52:16;4.50;99.90
15239;DHT22;7722;53.274;9.500;2023-11-18T12:54:44;4.60;99.90
15239;DHT22;7722;53.274;9.500;2023-11-18T12:57:20;4.60;99.90
15239;DHT22;7722;53.274;9.500;2023-11-18T12:59:49;4.60;99.90
15239;DHT22;7722;53.274;9.500;2023-11-18T13:02:16;4.60;99.90
15239;DHT22;7722;53.274;9.500;2023-11-18T13:04:45;4.60;99.90
15239;DHT22;7722;53.274;9.500;2023-11-18T13:07:13;4.60;99.90
15239;DHT22;7722;53.274;9.500;2023-11-18T13:09:41;4.60;99.90
15239;DHT22;7722;53.274;9.500;2023-11-18T13:12:10;4.60;99.90
15239;DHT22;7722;53.274;9.500;2023-11-18T13:14:42;4.60;99.90
15239;DHT22;7722;53.274;9.500;2023-11-18T13:17:12;4.60;99.90
15239;DHT22;7722;53.274;9.500;2023-11-18T13:19:39;4.60;99.90
15239;DHT22;7722;53.274;9.500;2023-11-18T13:22:08;4.60;99.90
15239;DHT22;7722;53.274;9.500;2023-11-18T13:27:13;4.60;99.90
15239;DHT22;7722;53.274;9.500;2023-11-18T13:29:45;4.60;99.90
15239;DHT22;7722;53.274;9.500;2023-11-18T13:32:15;4.60;99.90
15239;DHT22;7722;53.274;9.500;2023-11-18T13:34:42;4.60;99.90
15239;DHT22;7722;53.274;9.500;2023-11-18T13:37:11;4.60;99.90
15239;DHT22;7722;53.274;9.500;2023-11-18T13:39:42;4.60;99.90
15239;DHT22;7722;53.274;9.500;2023-11-18T13:42:20;4.60;99.90
15239;DHT22;7722;53.274;9.500;2023-11-18T13:44:49;4.60;99.90
15239;DHT22;7722;53.274;9.500;2023-11-18T13:47:19;4.60;99.90
15239;DHT22;7722;53.274;9.500;2023-11-18T13:49:50;4.60;99.90
15239;DHT22;7722;53.274;9.500;2023-11-18T13:52:18;4.60;99.90
15239;DHT22;7722;53.274;9.500;2023-11-18T13:54:47;4.60;99.90
15239;DHT22;7722;53.274;9.500;2023-11-18T13:57:15;4.60;99.90
15239;DHT22;7722;53.274;9.500;2023-11-18T13:59:43;4.60;99.90
15239;DHT22;7722;53.274;9.500;2023-11-18T14:02:12;4.60;99.90
15239;DHT22;7722;53.274;9.500;2023-11-18T14:04:40;4.60;99.90
15239;DHT22;7722;53.274;9.500;2023-11-18T14:07:09;4.60;99.90
15239;DHT22;7722;53.274;9.500;2023-11-18T14:09:37;4.60;99.90
15239;DHT22;7722;53.274;9.500;2023-11-18T14:12:07;4.60;99.90
15239;DHT22;7722;53.274;9.500;2023-11-18T14:14:34;4.60;99.90
15239;DHT22;7722;53.274;9.500;2023-11-18T14:17:03;4.60;99.90
15239;DHT22;7722;53.274;9.500;2023-11-18T14:19:33;4.60;99.90
15239;DHT22;7722;53.274;9.500;2023-11-18T14:22:01;4.60;99.90
15239;DHT22;7722;53.274;9.500;2023-11-18T14:24:33;4.70;99.90
15239;DHT22;7722;53.274;9.500;2023-11-18T14:27:00;4.70;99.90
15239;DHT22;7722;53.274;9.500;2023-11-18T14:29:30;4.70;99.90
15239;DHT22;7722;53.274;9.500;2023-11-18T14:31:56;4.60;99.90
15239;DHT22;7722;53.274;9.500;2023-11-18T14:34:24;4.60;99.90
15239;DHT22;7722;53.274;9.500;2023-11-18T14:36:52;4.60;99.90
15239;DHT22;7722;53.274;9.500;2023-11-18T14:39:19;4.60;99.90
15239;DHT22;7722;53.274;9.500;2023-11-18T14:41:48;4.70;99.90
15239;DHT22;7722;53.274;9.500;2023-11-18T14:44:15;4.70;99.90
15239;DHT22;7722;53.274;9.500;2023-11-18T14:46:43;4.70;99.90
15239;DHT22;7722;53.274;9.500;2023-11-18T14:49:11;4.70;99.90
15239;DHT22;7722;53.274;9.500;2023-11-18T14:51:38;4.70;99.90
15239;DHT22;7722;53.274;9.500;2023-11-18T14:54:07;4.70;99.90
15239;DHT22;7722;53.274;9.500;2023-11-18T14:56:34;4.80;99.90
15239;DHT22;7722;53.274;9.500;2023-11-18T14:59:02;4.80;99.90
15239;DHT22;7722;53.274;9.500;2023-11-18T15:01:30;4.80;99.90
15239;DHT22;7722;53.274;9.500;2023-11-18T15:03:57;4.80;99.90
15239;DHT22;7722;53.274;9.500;2023-11-18T15:06:25;4.90;99.90
15239;DHT22;7722;53.274;9.500;2023-11-18T15:08:52;4.90;99.90
15239;DHT22;7722;53.274;9.500;2023-11-18T15:11:24;4.90;99.90
15239;DHT22;7722;53.274;9.500;2023-11-18T15:13:51;4.90;99.90
15239;DHT22;7722;53.274;9.500;2023-11-18T15:16:19;4.80;99.90
15239;DHT22;7722;53.274;9.500;2023-11-18T15:18:47;4.90;99.90
15239;DHT22;7722;53.274;9.500;2023-11-18T15:21:17;4.90;99.90
15239;DHT22;7722;53.274;9.500;2023-11-18T15:23:45;4.90;99.90
15239;DHT22;7722;53.274;9.500;2023-11-18T15:26:13;5.00;99.90
15239;DHT22;7722;53.274;9.500;2023-11-18T15:28:42;4.90;99.90
15239;DHT22;7722;53.274;9.500;2023-11-18T15:31:09;5.00;99.90
15239;DHT22;7722;53.274;9.500;2023-11-18T15:33:37;5.10;99.90
15239;DHT22;7722;53.274;9.500;2023-11-18T15:36:06;5.10;99.90
15239;DHT22;7722;53.274;9.500;2023-11-18T15:38:33;5.00;99.90
15239;DHT22;7722;53.274;9.500;2023-11-18T15:41:01;5.00;99.90
15239;DHT22;7722;53.274;9.500;2023-11-18T15:43:28;5.10;99.90
15239;DHT22;7722;53.274;9.500;2023-11-18T15:45:57;5.10;99.90
15239;DHT22;7722;53.274;9.500;2023-11-18T15:48:24;5.10;99.90
15239;DHT22;7722;53.274;9.500;2023-11-18T15:50:51;5.10;99.90
15239;DHT22;7722;53.274;9.500;2023-11-18T15:53:19;5.10;99.90
15239;DHT22;7722;53.274;9.500;2023-11-18T15:55:48;5.10;99.90
15239;DHT22;7722;53.274;9.500;2023-11-18T15:58:15;5.10;99.90
15239;DHT22;7722;53.274;9.500;2023-11-18T16:00:44;5.10;99.90
15239;DHT22;7722;53.274;9.500;2023-11-18T16:03:13;5.10;99.90
15239;DHT22;7722;53.274;9.500;2023-11-18T16:05:40;5.10;99.90
15239;DHT22;7722;53.274;9.500;2023-11-18T16:08:07;5.10;99.90
15239;DHT22;7722;53.274;9.500;2023-11-18T16:10:35;5.10;99.90
15239;DHT22;7722;53.274;9.500;2023-11-18T16:13:02;5.10;99.90
15239;DHT22;7722;53.274;9.500;2023-11-18T16:15:30;5.10;99.90